sensor_id;sensor_type;location;lat;lon;timestamp;P1;durP1;ratioP1;P2;durP2;ratioP2
29414;SDS011;20303;48.302;11.914;2023-04-06T00:02:17;42.05;;;24.85;;
29414;SDS011;20303;48.302;11.914;2023-04-06T00:12:18;35.53;;;22.92;;
29414;SDS011;20303;48.302;11.914;2023-04-06T00:22:19;32.92;;;20.27;;
29414;SDS011;20303;48.302;11.914;2023-04-06T00:32:20;29.20;;;18.67;;
29414;SDS011;20303;48.302;11.914;2023-04-06T00:42:21;27.50;;;17.83;;
29414;SDS011;20303;48.302;11.914;2023-04-06T00:52:25;26.45;;;16.90;;
29414;SDS011;20303;48.302;11.914;2023-04-06T01:02:26;23.73;;;15.23;;
29414;SDS011;20303;48.302;11.914;2023-04-06T01:12:27;21.30;;;13.90;;
29414;SDS011;20303;48.302;11.914;2023-04-06T01:22:29;21.02;;;13.93;;
29414;SDS011;20303;48.302;11.914;2023-04-06T01:32:30;21.75;;;13.75;;
29414;SDS011;20303;48.302;11.914;2023-04-06T01:42:31;21.27;;;13.15;;
29414;SDS011;20303;48.302;11.914;2023-04-06T01:52:32;21.08;;;12.98;;
29414;SDS011;20303;48.302;11.914;2023-04-06T02:02:33;20.33;;;12.30;;
29414;SDS011;20303;48.302;11.914;2023-04-06T02:12:35;18.08;;;11.38;;
29414;SDS011;20303;48.302;11.914;2023-04-06T02:22:36;16.77;;;11.32;;
29414;SDS011;20303;48.302;11.914;2023-04-06T02:32:37;15.50;;;10.60;;
29414;SDS011;20303;48.302;11.914;2023-04-06T02:42:38;14.63;;;9.80;;
29414;SDS011;20303;48.302;11.914;2023-04-06T02:52:39;15.88;;;9.68;;
29414;SDS011;20303;48.302;11.914;2023-04-06T03:02:40;12.85;;;8.90;;
29414;SDS011;20303;48.302;11.914;2023-04-06T03:12:41;12.77;;;8.60;;
29414;SDS011;20303;48.302;11.914;2023-04-06T03:22:42;12.27;;;8.23;;
29414;SDS011;20303;48.302;11.914;2023-04-06T03:32:43;12.80;;;8.27;;
29414;SDS011;20303;48.302;11.914;2023-04-06T03:42:45;12.07;;;7.97;;
29414;SDS011;20303;48.302;11.914;2023-04-06T03:52:46;10.07;;;7.10;;
29414;SDS011;20303;48.302;11.914;2023-04-06T04:12:47;9.30;;;6.30;;
29414;SDS011;20303;48.302;11.914;2023-04-06T04:22:48;9.65;;;6.40;;
29414;SDS011;20303;48.302;11.914;2023-04-06T04:32:49;8.35;;;5.93;;
29414;SDS011;20303;48.302;11.914;2023-04-06T04:52:51;7.13;;;5.03;;
29414;SDS011;20303;48.302;11.914;2023-04-06T05:02:52;7.95;;;5.25;;
29414;SDS011;20303;48.302;11.914;2023-04-06T05:22:54;9.40;;;4.80;;
29414;SDS011;20303;48.302;11.914;2023-04-06T05:32:56;9.95;;;4.50;;
29414;SDS011;20303;48.302;11.914;2023-04-06T05:52:57;9.73;;;4.43;;
29414;SDS011;20303;48.302;11.914;2023-04-06T06:02:58;11.65;;;4.60;;
29414;SDS011;20303;48.302;11.914;2023-04-06T06:13:00;11.40;;;4.38;;
29414;SDS011;20303;48.302;11.914;2023-04-06T06:33:02;10.10;;;4.10;;
29414;SDS011;20303;48.302;11.914;2023-04-06T06:43:03;10.73;;;4.15;;
29414;SDS011;20303;48.302;11.914;2023-04-06T06:53:04;9.75;;;3.90;;
29414;SDS011;20303;48.302;11.914;2023-04-06T07:03:05;9.75;;;4.20;;
29414;SDS011;20303;48.302;11.914;2023-04-06T07:13:06;10.27;;;3.97;;
29414;SDS011;20303;48.302;11.914;2023-04-06T07:33:08;9.13;;;3.63;;
29414;SDS011;20303;48.302;11.914;2023-04-06T07:43:09;9.63;;;3.80;;
29414;SDS011;20303;48.302;11.914;2023-04-06T07:53:11;9.30;;;3.90;;
29414;SDS011;20303;48.302;11.914;2023-04-06T08:03:12;8.90;;;4.10;;
29414;SDS011;20303;48.302;11.914;2023-04-06T08:13:13;12.30;;;4.47;;
29414;SDS011;20303;48.302;11.914;2023-04-06T08:23:14;12.73;;;4.88;;
29414;SDS011;20303;48.302;11.914;2023-04-06T08:33:15;10.52;;;4.55;;
29414;SDS011;20303;48.302;11.914;2023-04-06T08:43:16;13.35;;;4.72;;
29414;SDS011;20303;48.302;11.914;2023-04-06T08:53:17;15.25;;;5.13;;
29414;SDS011;20303;48.302;11.914;2023-04-06T09:03:19;14.38;;;5.35;;
29414;SDS011;20303;48.302;11.914;2023-04-06T09:13:20;13.82;;;5.75;;
29414;SDS011;20303;48.302;11.914;2023-04-06T09:23:21;16.55;;;5.80;;
29414;SDS011;20303;48.302;11.914;2023-04-06T09:33:23;12.93;;;5.13;;
29414;SDS011;20303;48.302;11.914;2023-04-06T09:43:25;10.63;;;4.90;;
29414;SDS011;20303;48.302;11.914;2023-04-06T09:53:27;12.65;;;5.07;;
29414;SDS011;20303;48.302;11.914;2023-04-06T10:03:40;11.90;;;4.68;;
29414;SDS011;20303;48.302;11.914;2023-04-06T10:13:46;8.80;;;4.32;;
29414;SDS011;20303;48.302;11.914;2023-04-06T10:23:49;8.48;;;4.28;;
29414;SDS011;20303;48.302;11.914;2023-04-06T10:33:59;48.22;;;6.30;;
29414;SDS011;20303;48.302;11.914;2023-04-06T10:44:01;30.27;;;5.43;;
29414;SDS011;20303;48.302;11.914;2023-04-06T10:54:02;34.80;;;5.43;;
29414;SDS011;20303;48.302;11.914;2023-04-06T11:04:05;26.00;;;4.93;;
29414;SDS011;20303;48.302;11.914;2023-04-06T11:14:09;31.20;;;4.70;;
29414;SDS011;20303;48.302;11.914;2023-04-06T11:24:11;27.75;;;4.38;;
29414;SDS011;20303;48.302;11.914;2023-04-06T11:34:16;28.23;;;5.03;;
29414;SDS011;20303;48.302;11.914;2023-04-06T11:54:41;21.02;;;4.55;;
29414;SDS011;20303;48.302;11.914;2023-04-06T12:04:42;14.00;;;3.80;;
29414;SDS011;20303;48.302;11.914;2023-04-06T12:14:43;15.13;;;4.97;;
29414;SDS011;20303;48.302;11.914;2023-04-06T12:24:44;11.35;;;4.65;;
29414;SDS011;20303;48.302;11.914;2023-04-06T12:34:45;12.27;;;5.10;;
29414;SDS011;20303;48.302;11.914;2023-04-06T12:44:46;9.20;;;4.38;;
29414;SDS011;20303;48.302;11.914;2023-04-06T12:54:47;9.35;;;4.18;;
29414;SDS011;20303;48.302;11.914;2023-04-06T13:04:48;11.23;;;4.32;;
29414;SDS011;20303;48.302;11.914;2023-04-06T13:14:50;9.23;;;4.28;;
29414;SDS011;20303;48.302;11.914;2023-04-06T13:24:52;8.55;;;3.95;;
29414;SDS011;20303;48.302;11.914;2023-04-06T13:34:56;8.75;;;4.10;;
29414;SDS011;20303;48.302;11.914;2023-04-06T13:44:59;9.45;;;4.00;;
29414;SDS011;20303;48.302;11.914;2023-04-06T13:55:00;7.78;;;4.15;;
29414;SDS011;20303;48.302;11.914;2023-04-06T14:05:02;8.48;;;3.33;;
29414;SDS011;20303;48.302;11.914;2023-04-06T14:15:03;21.33;;;4.95;;
29414;SDS011;20303;48.302;11.914;2023-04-06T14:25:04;30.73;;;4.53;;
29414;SDS011;20303;48.302;11.914;2023-04-06T14:35:06;29.70;;;4.03;;
29414;SDS011;20303;48.302;11.914;2023-04-06T14:45:08;12.45;;;3.47;;
29414;SDS011;20303;48.302;11.914;2023-04-06T14:55:09;10.02;;;3.30;;
29414;SDS011;20303;48.302;11.914;2023-04-06T15:05:10;12.10;;;5.30;;
29414;SDS011;20303;48.302;11.914;2023-04-06T15:15:11;9.98;;;3.40;;
29414;SDS011;20303;48.302;11.914;2023-04-06T15:25:12;8.43;;;3.10;;
29414;SDS011;20303;48.302;11.914;2023-04-06T15:35:13;8.93;;;2.95;;
29414;SDS011;20303;48.302;11.914;2023-04-06T15:45:15;8.13;;;3.10;;
29414;SDS011;20303;48.302;11.914;2023-04-06T15:55:16;8.45;;;2.92;;
29414;SDS011;20303;48.302;11.914;2023-04-06T16:05:17;6.63;;;3.00;;
29414;SDS011;20303;48.302;11.914;2023-04-06T16:15:18;6.15;;;2.75;;
29414;SDS011;20303;48.302;11.914;2023-04-06T16:25:19;6.40;;;2.80;;
29414;SDS011;20303;48.302;11.914;2023-04-06T16:35:20;6.03;;;2.80;;
29414;SDS011;20303;48.302;11.914;2023-04-06T16:45:22;6.20;;;2.70;;
29414;SDS011;20303;48.302;11.914;2023-04-06T16:55:23;6.18;;;2.72;;
29414;SDS011;20303;48.302;11.914;2023-04-06T17:05:24;5.97;;;2.70;;
29414;SDS011;20303;48.302;11.914;2023-04-06T17:15:25;7.28;;;2.53;;
29414;SDS011;20303;48.302;11.914;2023-04-06T17:25:28;4.25;;;2.55;;
29414;SDS011;20303;48.302;11.914;2023-04-06T17:35:29;5.25;;;2.40;;
29414;SDS011;20303;48.302;11.914;2023-04-06T17:45:30;5.28;;;2.50;;
29414;SDS011;20303;48.302;11.914;2023-04-06T17:55:31;5.68;;;2.58;;
29414;SDS011;20303;48.302;11.914;2023-04-06T18:05:33;4.95;;;2.80;;
29414;SDS011;20303;48.302;11.914;2023-04-06T18:15:34;5.55;;;2.67;;
29414;SDS011;20303;48.302;11.914;2023-04-06T18:25:40;4.80;;;2.80;;
29414;SDS011;20303;48.302;11.914;2023-04-06T18:35:41;3.60;;;2.50;;
29414;SDS011;20303;48.302;11.914;2023-04-06T18:45:43;4.60;;;2.90;;
29414;SDS011;20303;48.302;11.914;2023-04-06T18:55:44;6.22;;;3.00;;
29414;SDS011;20303;48.302;11.914;2023-04-06T19:05:45;4.90;;;3.15;;
29414;SDS011;20303;48.302;11.914;2023-04-06T19:15:46;6.40;;;3.15;;
29414;SDS011;20303;48.302;11.914;2023-04-06T19:25:47;5.57;;;3.20;;
29414;SDS011;20303;48.302;11.914;2023-04-06T19:35:48;6.60;;;3.50;;
29414;SDS011;20303;48.302;11.914;2023-04-06T19:45:49;5.80;;;3.22;;
29414;SDS011;20303;48.302;11.914;2023-04-06T19:55:50;6.22;;;3.58;;
29414;SDS011;20303;48.302;11.914;2023-04-06T20:05:51;5.80;;;3.50;;
29414;SDS011;20303;48.302;11.914;2023-04-06T20:15:52;6.88;;;3.65;;
29414;SDS011;20303;48.302;11.914;2023-04-06T20:25:53;7.85;;;3.95;;
29414;SDS011;20303;48.302;11.914;2023-04-06T20:35:55;6.03;;;3.88;;
29414;SDS011;20303;48.302;11.914;2023-04-06T20:46:00;6.78;;;3.83;;
29414;SDS011;20303;48.302;11.914;2023-04-06T20:56:01;5.13;;;3.88;;
29414;SDS011;20303;48.302;11.914;2023-04-06T21:06:02;7.05;;;4.00;;
29414;SDS011;20303;48.302;11.914;2023-04-06T21:16:03;9.05;;;3.75;;
29414;SDS011;20303;48.302;11.914;2023-04-06T21:26:04;4.90;;;3.63;;
29414;SDS011;20303;48.302;11.914;2023-04-06T21:36:06;7.45;;;3.90;;
29414;SDS011;20303;48.302;11.914;2023-04-06T21:46:07;6.30;;;3.92;;
29414;SDS011;20303;48.302;11.914;2023-04-06T21:56:09;4.90;;;3.70;;
29414;SDS011;20303;48.302;11.914;2023-04-06T22:06:10;5.20;;;3.88;;
29414;SDS011;20303;48.302;11.914;2023-04-06T22:16:11;4.82;;;3.75;;
29414;SDS011;20303;48.302;11.914;2023-04-06T22:26:13;8.20;;;3.78;;
29414;SDS011;20303;48.302;11.914;2023-04-06T22:36:14;5.75;;;3.65;;
29414;SDS011;20303;48.302;11.914;2023-04-06T22:46:15;4.97;;;3.65;;
29414;SDS011;20303;48.302;11.914;2023-04-06T22:56:16;4.78;;;3.70;;
29414;SDS011;20303;48.302;11.914;2023-04-06T23:06:17;5.82;;;3.83;;
29414;SDS011;20303;48.302;11.914;2023-04-06T23:16:18;5.85;;;3.40;;
29414;SDS011;20303;48.302;11.914;2023-04-06T23:26:19;3.92;;;3.35;;
29414;SDS011;20303;48.302;11.914;2023-04-06T23:36:21;4.22;;;3.50;;
29414;SDS011;20303;48.302;11.914;2023-04-06T23:46:22;3.92;;;3.20;;
29414;SDS011;20303;48.302;11.914;2023-04-06T23:56:23;5.72;;;3.50;;
